الصفحة الرئيسية
METAR-TAF:

METAR-TAF

مطار :

مطار قويلين يانغ جيانغ الدولي

Guilin, جمهورية الصين الشعبية

دائرة عرض: 25-20N, خط طول: 110-18E, ارتفاع: 166 متر

مراقبة الطقس الحالي

تاريخ ووقت الإصدار 1ساعة و 6 دقيقة قبل الساعة 19:00UTC
ريح 4 عقدة من الجنوب
درجة الحرارة 23°درجة مئوية
الرطوبة 94%
ضغط 1008 hPa
الرؤية: 5000 متر
غيوم قليلة على ارتفاع 300 قدم
غيوم متفرقة على ارتفاع 1500 قدم
ملبد بالغيوم على ارتفاع 3000 قدم
مطر خفيف, غشاء

METAR: ZGKL 291900Z 19002MPS 5000 -RA BR FEW003 SCT015 OVC030 23/22 Q1008 NOSIG

زمن: 04:06 (20:06 UTC)

توقعات

تاريخ ووقت الإصدار 4ساعات و 59 دقيقة قبل الساعة 15:07UTC
التوقعات صالحة من29 الساعة 18 UTC إلى 30 الساعة 18 UTC
ريح 6 عقدة من الجنوب
الرؤية: 2800 متر
غيوم متفرقة على ارتفاع 3000 قدم
غيوم مفككة على ارتفاع 5000 قدم
مطر خفيف, غشاء
أصبح
من 30 الساعة 00 UTC إلى 30 الساعة 01 UTC
الرؤية: 6000 متر

TAF: ZGKL 291507Z 2918/3018 18003MPS 2800 -RA BR SCT030 BKN050 TX33/3007Z TN22/2922Z BECMG 3000/3001 6000

أرصاد الطقس والتوقعات من أكثر من 4000 مطار (تقارير الطقس للمطار METAR والتنبؤ بالطقس بالمطارTAF).

المحطات المتاحة هي النقط الصفراء والحمراء على الخريطة.

حرك المؤشر فوق النقطة لمعرفة اسم المحطة.

ثم انقر لمعرفة أرصاد وتوقعات الطقس.

لتغيير الخارطة: اضغط على الأزرار الخضراء مع رمز الصليب الأسود للتكبير. على الزر الأخضر مع شرطة للتصغير، أو على الأسهم الخضراء للخرائط المجاورة.


METAR-TAF: